Kelseyville, California
Current Conditions -  °F | °C
As of 6:04 AM on Saturday 22 Nov 2014 (Local Time) from KUKI Reporting Station
Light Rain Light Rain  
Wind Chill: 57°   Ceiling: 400
Heat Index: 57°   Visibility: 5mi
Dew Point: 55°   Wind: 0mph
Humidity: 93%   Direction: NA
Pressure: 29.98"   Gusts: NA
Location:  38.98°N, 122.84°W
Report Text: KUKI 221404Z AUTO 00000KT 5SM -RA BR BKN004 OVC028 14/13 A2998 RMK AO2 P0001 T01390128
Loading
Personal Weather Stations






























Interactive Weather Map New forecast layout! Learn more

10-Day Weather Forecast

Advertisements
Track Severe Weather on mobile